Terminal Aerodrome Forecast
Issued by NWS

Current Version | Previous Version | Text Only | Print | Product List | Glossary On
Versions: 1 2 3 4 5 6 7 8 9 10 11 12 13 14 15 16 17
169
FTUS43 KGRR 311733
TAFBTL
TAF
KBTL 311733Z 3118/0118 12009KT P6SM SCT250
     FM010300 12005KT P6SM BKN120
     FM011200 14006KT P6SM BKN050
     FM011500 16007KT P6SM VCSH BKN050=

USA.gov is the U.S. government's official web portal to all federal, state and local government web resources and services.